Plain Dealing, Louisiana
Current Conditions -  °F | °C
As of 12:53 PM on Friday 28 Nov 2014 (Local Time) from KDTN Reporting Station
Clear Clear  
Wind Chill: 61°   Ceiling: Unl
Heat Index: 61°   Visibility: 10mi
Dew Point: 35°   Wind: 13mph
Humidity: 38%   Direction: 170°S
Pressure: 30.23"   Gusts: NA
Location:  32.91°N, 93.7°W
Report Text: KDTN 281853Z 17011KT 10SM CLR 16/02 A3023 RMK AO2 SLP235 T01610017
Loading
Personal Weather Stations






























Interactive Weather Map New forecast layout! Learn more

10-Day Weather Forecast

Advertisements
Track Severe Weather on mobile